Time;durP1;ratioP1;P1;durP2;ratioP2;P2;SDS_P1;SDS_P2;PMS_P1;PMS_P2;Temp;Humidity;BMP_temperature;BMP_pressure;BME280_temperature;BME280_humidity;BME280_pressure;Samples;Min_cycle;Max_cycle;Signal;HPM_P1;HPM_P2
2023/04/24 00:00:24;;;;;;;1.88;0.93;;;;;;;12.88;39.88;99757.19;5074111;28;20059;-71
2023/04/24 00:02:56;;;;;;;1.13;0.90;;;;;;;12.87;39.66;99763.72;5064715;28;20040;-71
2023/04/24 00:05:26;;;;;;;1.67;0.82;;;;;;;12.84;39.82;99753.09;5067941;28;20396;-71
2023/04/24 00:07:55;;;;;;;2.80;1.20;;;;;;;12.82;39.72;99745.03;5066593;28;20419;-72
2023/04/24 00:10:23;;;;;;;3.65;1.77;;;;;;;12.81;39.61;99739.69;5070728;28;20064;-72
2023/04/24 00:12:50;;;;;;;2.33;1.27;;;;;;;12.81;40.04;99745.19;5066482;28;20043;-72
2023/04/24 00:15:18;;;;;;;2.15;1.30;;;;;;;12.80;39.89;99748.97;5067736;28;20094;-70
2023/04/24 00:17:46;;;;;;;2.67;1.40;;;;;;;12.77;39.93;99752.94;5058157;28;20049;-71
2023/04/24 00:20:14;;;;;;;1.83;1.17;;;;;;;12.77;40.03;99755.69;5051029;28;20045;-71
2023/04/24 00:22:43;;;;;;;3.15;1.30;;;;;;;12.77;40.16;99754.84;5073365;28;20106;-71
2023/04/24 00:25:11;;;;;;;2.22;1.40;;;;;;;12.75;39.73;99757.75;5081185;28;20414;-70
2023/04/24 00:27:39;;;;;;;2.60;1.40;;;;;;;12.74;40.28;99749.69;5079961;28;20044;-71
2023/04/24 00:30:08;;;;;;;1.35;1.02;;;;;;;12.74;40.31;99749.69;5060213;28;20452;-71
2023/04/24 00:32:36;;;;;;;2.65;1.20;;;;;;;12.72;39.82;99752.59;5047316;28;20056;-70
2023/04/24 00:35:05;;;;;;;1.95;1.23;;;;;;;12.72;39.57;99749.00;5055179;28;20052;-70
2023/04/24 00:37:33;;;;;;;2.05;1.23;;;;;;;12.70;39.54;99746.44;5053847;28;20060;-71
2023/04/24 00:40:03;;;;;;;2.78;1.30;;;;;;;12.70;39.49;99757.44;5055896;28;20086;-71
2023/04/24 00:42:31;;;;;;;1.83;1.15;;;;;;;12.67;39.07;99756.91;5041342;28;20450;-71
2023/04/24 00:45:00;;;;;;;1.50;1.10;;;;;;;12.66;38.85;99753.31;5069776;28;20035;-70
2023/04/24 00:47:27;;;;;;;1.30;1.00;;;;;;;12.64;38.56;99755.34;5063847;28;20715;-71
2023/04/24 00:49:56;;;;;;;1.15;0.85;;;;;;;12.61;38.64;99744.72;5067006;28;20464;-71
2023/04/24 00:52:24;;;;;;;1.83;1.30;;;;;;;12.59;38.59;99741.28;5080793;28;20044;-71
2023/04/24 00:54:52;;;;;;;1.50;1.00;;;;;;;12.57;38.34;99746.06;5082518;28;20029;-71
2023/04/24 00:57:23;;;;;;;1.52;0.93;;;;;;;12.56;38.11;99754.47;5075830;28;20052;-72
2023/04/24 00:59:51;;;;;;;1.73;1.15;;;;;;;12.53;38.13;99746.63;5073673;28;20407;-72
2023/04/24 01:02:20;;;;;;;1.85;1.00;;;;;;;12.48;38.61;99750.72;5081867;28;20507;-70
2023/04/24 01:04:50;;;;;;;1.88;1.30;;;;;;;12.47;38.18;99750.88;5083910;28;20449;-71
2023/04/24 01:07:20;;;;;;;2.03;1.23;;;;;;;12.45;38.54;99750.22;5072613;28;20055;-71
2023/04/24 01:09:51;;;;;;;1.70;1.10;;;;;;;12.40;38.12;99748.00;5053956;28;20211;-70
2023/04/24 01:12:21;;;;;;;2.38;1.20;;;;;;;12.40;38.63;99753.47;5059663;28;20044;-71
2023/04/24 01:14:49;;;;;;;2.08;1.23;;;;;;;12.36;38.08;99743.91;5057755;28;20047;-71
2023/04/24 01:17:17;;;;;;;2.03;1.35;;;;;;;12.34;38.08;99751.44;5076498;28;20047;-71
2023/04/24 01:19:45;;;;;;;2.58;1.45;;;;;;;12.33;38.29;99722.28;5065605;28;20036;-71
2023/04/24 01:22:16;;;;;;;3.78;1.70;;;;;;;12.32;37.95;99758.09;5039924;28;20507;-70
2023/04/24 01:24:44;;;;;;;3.10;1.90;;;;;;;12.28;38.40;99749.38;5066732;28;20102;-70
2023/04/24 01:27:13;;;;;;;3.10;2.15;;;;;;;12.25;38.49;99754.34;5055058;28;20131;-71
2023/04/24 01:29:41;;;;;;;3.10;2.10;;;;;;;12.21;37.98;99745.63;5082567;28;20044;-71
2023/04/24 01:32:10;;;;;;;4.88;2.72;;;;;;;12.18;38.02;99753.31;5082461;28;20130;-70
2023/04/24 01:34:39;;;;;;;4.28;2.47;;;;;;;12.13;38.09;99751.94;5057613;28;20098;-69
2023/04/24 01:37:07;;;;;;;4.88;2.60;;;;;;;12.10;38.17;99743.22;5085236;28;20416;-71
2023/04/24 01:39:36;;;;;;;4.18;2.55;;;;;;;12.08;38.20;99742.53;5068117;28;20139;-70
2023/04/24 01:42:05;;;;;;;4.63;2.60;;;;;;;12.02;38.20;99749.56;5055737;28;20048;-70
2023/04/24 01:44:34;;;;;;;4.03;2.55;;;;;;;11.98;38.33;99753.66;5059366;28;20048;-71
2023/04/24 01:47:04;;;;;;;4.35;2.70;;;;;;;11.94;38.54;99751.44;5052534;28;20454;-71
2023/04/24 01:49:33;;;;;;;4.00;2.60;;;;;;;11.91;38.22;99751.75;5051422;28;20514;-71
2023/04/24 01:52:01;;;;;;;5.18;2.72;;;;;;;11.87;38.51;99756.75;5034545;28;20113;-71
2023/04/24 01:54:31;;;;;;;3.63;2.47;;;;;;;11.85;38.47;99755.19;5051924;28;20518;-70
2023/04/24 01:57:01;;;;;;;3.92;2.70;;;;;;;11.85;38.79;99757.94;5053190;28;20049;-69
2023/04/24 01:59:30;;;;;;;4.18;2.70;;;;;;;11.83;38.94;99754.50;5040505;28;20482;-69
2023/04/24 02:01:58;;;;;;;3.92;2.47;;;;;;;11.82;38.75;99752.78;5065582;28;20083;-71
2023/04/24 02:04:26;;;;;;;4.97;2.75;;;;;;;11.80;38.70;99752.94;5066888;28;20042;-71
2023/04/24 02:06:54;;;;;;;4.25;2.78;;;;;;;11.80;38.74;99750.19;5064114;28;20135;-71
2023/04/24 02:09:22;;;;;;;4.72;2.95;;;;;;;11.80;39.09;99754.84;5043665;28;20095;-71
2023/04/24 02:11:51;;;;;;;4.80;2.92;;;;;;;11.80;38.96;99755.69;5043158;28;20063;-71
2023/04/24 02:14:20;;;;;;;5.03;2.83;;;;;;;11.81;39.03;99754.66;5083496;28;20047;-71
2023/04/24 02:16:48;;;;;;;4.68;2.95;;;;;;;11.79;39.54;99754.00;5065288;28;20558;-71
2023/04/24 02:19:16;;;;;;;5.47;3.20;;;;;;;11.79;39.15;99748.50;5078122;28;20124;-71
2023/04/24 02:21:44;;;;;;;5.05;3.20;;;;;;;11.79;39.61;99754.00;5084653;28;20452;-70
2023/04/24 02:24:12;;;;;;;5.57;3.13;;;;;;;11.79;39.27;99745.78;5061607;28;20578;-69
2023/04/24 02:26:39;;;;;;;4.70;3.22;;;;;;;11.80;39.76;99746.63;5072404;28;20089;-71
2023/04/24 02:29:08;;;;;;;4.93;3.10;;;;;;;11.80;39.76;99744.72;5079539;28;20102;-73
2023/04/24 02:31:37;;;;;;;5.03;3.25;;;;;;;11.83;39.45;99746.28;5054141;28;20352;-73
2023/04/24 02:34:05;;;;;;;5.18;3.13;;;;;;;11.79;39.57;99745.78;5055620;28;20036;-73
2023/04/24 02:36:33;;;;;;;5.28;3.45;;;;;;;11.80;39.39;99755.69;5056693;28;20058;-73
2023/04/24 02:39:03;;;;;;;5.97;3.90;;;;;;;11.79;39.18;99754.00;5059161;28;20037;-72
2023/04/24 02:41:32;;;;;;;5.40;3.60;;;;;;;11.78;39.05;99757.75;5039080;28;20049;-72
2023/04/24 02:44:00;;;;;;;5.85;3.70;;;;;;;11.79;39.13;99761.34;5055216;28;20048;-72
2023/04/24 02:46:28;;;;;;;5.25;3.55;;;;;;;11.77;39.39;99752.44;5054791;28;20059;-72
2023/04/24 02:48:57;;;;;;;5.40;3.60;;;;;;;11.80;39.75;99765.81;5055734;28;20113;-72
2023/04/24 02:51:25;;;;;;;6.03;4.07;;;;;;;11.78;39.78;99762.38;5063399;28;20071;-72
2023/04/24 02:53:53;;;;;;;6.90;3.75;;;;;;;11.78;39.37;99759.63;5076626;28;20052;-72
2023/04/24 02:56:21;;;;;;;6.28;4.00;;;;;;;11.78;39.67;99757.75;5068029;28;20056;-71
2023/04/24 02:58:49;;;;;;;5.90;4.38;;;;;;;11.78;39.69;99760.50;5037029;28;20052;-71
2023/04/24 03:01:17;;;;;;;7.13;4.13;;;;;;;11.77;39.19;99766.16;5049513;28;20044;-70
2023/04/24 03:03:45;;;;;;;5.97;3.75;;;;;;;11.76;39.44;99759.81;5078077;28;20040;-70
2023/04/24 03:06:15;;;;;;;6.63;4.35;;;;;;;11.77;39.45;99767.00;5059774;28;20040;-71
2023/04/24 03:08:43;;;;;;;6.07;4.43;;;;;;;11.75;39.48;99774.53;5078891;28;20036;-73
2023/04/24 03:11:11;;;;;;;7.57;4.22;;;;;;;11.76;39.44;99767.16;5060469;28;20079;-73
2023/04/24 03:13:39;;;;;;;7.45;4.45;;;;;;;11.76;39.78;99773.50;5081906;28;20046;-73
2023/04/24 03:16:07;;;;;;;6.10;4.38;;;;;;;11.76;39.30;99780.88;5069312;28;20048;-73
2023/04/24 03:18:35;;;;;;;6.60;4.05;;;;;;;11.76;39.78;99775.38;5080817;28;20453;-73
2023/04/24 03:21:04;;;;;;;6.60;4.40;;;;;;;11.74;39.36;99776.41;5070108;28;20045;-73
2023/04/24 03:23:34;;;;;;;5.82;4.53;;;;;;;11.76;39.11;99772.66;5044445;28;20052;-73
2023/04/24 03:26:02;;;;;;;6.93;4.18;;;;;;;11.74;39.38;99783.78;5070315;28;20096;-71
2023/04/24 03:28:31;;;;;;;5.32;4.07;;;;;;;11.72;39.65;99781.19;5038310;28;20138;-70
2023/04/24 03:31:03;;;;;;;6.03;4.32;;;;;;;11.72;39.59;99777.59;5041636;28;20422;-72
2023/04/24 03:33:36;;;;;;;6.65;4.20;;;;;;;11.70;39.60;99780.53;5060190;28;20226;-72
2023/04/24 03:36:05;;;;;;;6.30;4.10;;;;;;;11.68;39.30;99781.72;5075243;28;20048;-70
2023/04/24 03:38:41;;;;;;;6.65;4.22;;;;;;;11.68;39.32;99785.31;5043142;28;20040;-73
2023/04/24 03:41:38;;;;;;;6.97;4.38;;;;;;;11.64;39.31;99783.06;5045613;28;20164;-70
2023/04/24 03:44:16;;;;;;;8.85;4.20;;;;;;;11.63;39.72;99787.72;5047755;28;20802;-73
2023/04/24 03:46:44;;;;;;;6.72;3.92;;;;;;;11.63;39.45;99787.72;5060164;28;20047;-71
2023/04/24 03:49:12;;;;;;;6.43;4.30;;;;;;;11.61;39.24;99783.41;5061678;28;20039;-73
2023/04/24 03:51:43;;;;;;;8.10;4.53;;;;;;;11.60;39.23;99782.53;5058583;28;20063;-73
2023/04/24 03:54:19;;;;;;;6.82;4.28;;;;;;;11.60;39.30;99778.91;5052681;28;20047;-73
2023/04/24 03:56:47;;;;;;;5.75;3.90;;;;;;;11.58;39.53;99781.81;5053765;28;20155;-72
2023/04/24 03:59:16;;;;;;;6.00;4.22;;;;;;;11.58;39.68;99784.56;5080864;28;20491;-73
2023/04/24 04:01:49;;;;;;;6.78;4.28;;;;;;;11.54;39.32;99780.47;5064982;28;20074;-72
2023/04/24 04:04:17;;;;;;;6.38;4.00;;;;;;;11.56;39.42;99781.13;5064267;28;20037;-71
2023/04/24 04:06:46;;;;;;;7.60;4.38;;;;;;;11.56;39.45;99789.34;5067251;28;20075;-73
2023/04/24 04:09:14;;;;;;;7.45;4.63;;;;;;;11.55;39.38;99790.41;5066728;28;20045;-72
2023/04/24 04:11:44;;;;;;;7.47;4.55;;;;;;;11.57;39.84;99782.84;5081100;28;20039;-73
2023/04/24 04:14:12;;;;;;;7.63;5.07;;;;;;;11.56;39.53;99783.00;5081890;28;20036;-73
2023/04/24 04:16:43;;;;;;;6.22;4.05;;;;;;;11.56;39.66;99797.56;5065664;28;20052;-72
2023/04/24 04:19:12;;;;;;;6.00;4.05;;;;;;;11.56;39.76;99785.75;5063628;28;20715;-73
2023/04/24 04:21:40;;;;;;;6.35;4.25;;;;;;;11.57;39.28;99798.44;5058830;28;20576;-73
2023/04/24 04:24:20;;;;;;;7.47;4.07;;;;;;;11.56;39.38;99799.44;5054809;28;20049;-72
2023/04/24 04:26:50;;;;;;;5.70;3.90;;;;;;;11.58;39.78;99800.16;5063900;28;20080;-71
2023/04/24 04:29:25;;;;;;;7.15;4.55;;;;;;;11.55;39.71;99801.34;5076760;28;20071;-72
2023/04/24 04:31:54;;;;;;;5.95;3.67;;;;;;;11.54;39.59;99799.63;5067107;28;20048;-71
2023/04/24 04:34:23;;;;;;;6.18;4.05;;;;;;;11.55;40.03;99803.25;5058419;28;20036;-73
2023/04/24 04:36:52;;;;;;;6.68;4.13;;;;;;;11.54;39.53;99799.63;5079554;28;20044;-73
2023/04/24 04:39:35;;;;;;;7.60;4.72;;;;;;;11.53;40.10;99803.41;5064316;28;20041;-72
2023/04/24 04:42:11;;;;;;;6.43;3.80;;;;;;;11.55;40.13;99803.25;5075895;28;20058;-73
2023/04/24 04:44:42;;;;;;;8.40;4.25;;;;;;;11.52;39.56;99814.53;5061079;28;20054;-73
2023/04/24 04:47:16;;;;;;;6.80;4.05;;;;;;;11.53;39.47;99805.28;5065421;28;20145;-71
2023/04/24 04:49:44;;;;;;;7.07;3.92;;;;;;;11.53;39.47;99813.50;5076959;28;20055;-71
2023/04/24 04:52:24;;;;;;;5.35;4.05;;;;;;;11.51;39.51;99812.78;5059542;28;20056;-72
2023/04/24 04:54:58;;;;;;;6.15;4.13;;;;;;;11.49;39.56;99810.22;5074120;28;20044;-70
2023/04/24 04:57:39;;;;;;;7.50;4.32;;;;;;;11.50;39.67;99820.16;5061771;28;20123;-70
2023/04/24 05:00:10;;;;;;;5.93;4.20;;;;;;;11.49;40.38;99807.47;5080386;28;20032;-72
2023/04/24 05:02:46;;;;;;;6.05;4.10;;;;;;;11.48;40.28;99810.38;5059139;28;20050;-71
2023/04/24 05:05:14;;;;;;;5.25;3.58;;;;;;;11.48;40.22;99818.59;5079618;28;20101;-71
2023/04/24 05:07:42;;;;;;;7.18;4.00;;;;;;;11.48;40.13;99819.47;5063405;28;20048;-71
2023/04/24 05:10:11;;;;;;;5.53;3.40;;;;;;;11.48;40.31;99824.06;5056885;28;20106;-72
2023/04/24 05:12:41;;;;;;;6.28;3.95;;;;;;;11.49;40.15;99820.31;5083073;28;20101;-71
2023/04/24 05:15:12;;;;;;;;;;;;;;;11.22;40.28;99821.44;5064811;28;20059;-72
2023/04/24 05:17:40;;;;;;;5.35;3.10;;;;;;;11.43;39.67;99826.47;5060282;28;20283;-70
2023/04/24 05:20:09;;;;;;;6.72;3.92;;;;;;;11.46;39.54;99818.78;5060878;28;20442;-71
2023/04/24 05:22:37;;;;;;;6.43;3.42;;;;;;;11.46;40.18;99823.41;5063506;28;20063;-71
2023/04/24 05:25:06;;;;;;;5.18;3.25;;;;;;;11.45;39.97;99821.69;5071937;28;20399;-72
2023/04/24 05:27:37;;;;;;;5.50;3.70;;;;;;;11.42;40.07;99830.22;5066988;28;20119;-71
2023/04/24 05:30:24;;;;;;;5.18;3.25;;;;;;;11.43;40.33;99830.06;5059019;28;20125;-71
2023/04/24 05:32:59;;;;;;;5.40;3.45;;;;;;;11.40;40.19;99832.25;5083115;28;20090;-72
2023/04/24 05:35:30;;;;;;;4.97;3.30;;;;;;;11.40;40.07;99822.16;5074863;28;20565;-71
2023/04/24 05:37:58;;;;;;;4.97;2.92;;;;;;;11.39;40.66;99836.06;5065191;28;20044;-71
2023/04/24 05:40:27;;;;;;;5.10;3.10;;;;;;;11.36;40.76;99835.34;5075374;28;20044;-72
2023/04/24 05:42:54;;;;;;;5.53;3.22;;;;;;;11.35;40.33;99841.00;5084077;28;20070;-71
2023/04/24 05:45:26;;;;;;;5.35;3.33;;;;;;;11.33;40.72;99841.16;5063320;28;20050;-71
2023/04/24 05:47:54;;;;;;;6.50;3.45;;;;;;;11.31;40.86;99839.59;5063546;28;20649;-72
2023/04/24 05:50:23;;;;;;;5.70;3.58;;;;;;;11.29;40.54;99837.03;5063404;28;20465;-73
2023/04/24 05:52:50;;;;;;;5.55;3.63;;;;;;;11.28;41.12;99838.06;5053549;28;20506;-72
2023/04/24 05:55:25;;;;;;;5.32;3.47;;;;;;;11.27;41.30;99839.06;5053745;28;20440;-71
2023/04/24 05:57:53;;;;;;;6.30;3.55;;;;;;;11.26;41.43;99840.09;5080372;28;20074;-69
2023/04/24 06:00:21;;;;;;;5.45;3.60;;;;;;;11.25;40.96;99846.59;5061617;28;20041;-69
2023/04/24 06:03:00;;;;;;;6.07;3.65;;;;;;;11.25;41.07;99843.84;5061325;28;20143;-71
2023/04/24 06:05:29;;;;;;;6.25;3.95;;;;;;;11.23;40.95;99843.16;5078311;28;20506;-70
2023/04/24 06:07:58;;;;;;;5.18;3.75;;;;;;;11.23;41.01;99834.94;5062059;28;20542;-69
2023/04/24 06:10:30;;;;;;;5.10;3.17;;;;;;;11.20;41.05;99834.41;5059673;28;20118;-70
2023/04/24 06:13:00;;;;;;;6.05;3.92;;;;;;;11.22;41.30;99851.56;5071288;28;20438;-71
2023/04/24 06:15:30;;;;;;;6.13;3.47;;;;;;;11.20;40.84;99842.63;5062759;28;20056;-72
2023/04/24 06:18:05;;;;;;;6.45;3.53;;;;;;;11.19;40.81;99844.50;5060361;28;20048;-71
2023/04/24 06:20:34;;;;;;;4.85;3.10;;;;;;;11.19;40.66;99830.81;5067598;28;20083;-71
2023/04/24 06:23:02;;;;;;;4.25;2.92;;;;;;;11.18;40.66;99850.13;5062100;28;20419;-69
2023/04/24 06:25:33;;;;;;;5.50;2.70;;;;;;;11.16;41.40;99842.09;5073579;28;20047;-71
2023/04/24 06:28:01;;;;;;;4.03;2.50;;;;;;;11.14;40.99;99838.63;5077976;28;20059;-70
2023/04/24 06:30:30;;;;;;;5.18;3.05;;;;;;;11.13;40.81;99845.16;5059427;28;20399;-71
2023/04/24 06:32:58;;;;;;;4.32;2.60;;;;;;;11.12;40.91;99843.44;5059435;28;20086;-71
2023/04/24 06:35:41;;;;;;;4.85;3.00;;;;;;;11.11;41.01;99849.94;5064131;28;20048;-72
2023/04/24 06:38:09;;;;;;;4.47;2.92;;;;;;;11.09;41.60;99849.25;5077294;28;20048;-69
2023/04/24 06:40:37;;;;;;;4.68;3.13;;;;;;;11.09;41.58;99848.38;5078025;28;20499;-69
2023/04/24 06:43:06;;;;;;;4.78;2.95;;;;;;;11.06;41.47;99851.47;5080759;28;20044;-69
2023/04/24 06:45:34;;;;;;;5.07;3.03;;;;;;;11.05;42.06;99847.00;5059546;28;20090;-69
2023/04/24 06:48:02;;;;;;;4.78;2.70;;;;;;;11.05;42.25;99847.00;5076883;28;20047;-70
2023/04/24 06:50:30;;;;;;;4.82;2.70;;;;;;;11.04;41.48;99848.88;5062650;28;20048;-70
2023/04/24 06:53:00;;;;;;;4.25;2.70;;;;;;;11.05;41.75;99853.34;5078276;28;20048;-68
2023/04/24 06:55:28;;;;;;;4.13;2.50;;;;;;;11.03;42.00;99849.03;5076283;28;20155;-69
2023/04/24 06:57:55;;;;;;;3.33;2.33;;;;;;;11.03;41.88;99851.78;5077587;28;20487;-69
2023/04/24 07:00:24;;;;;;;4.63;2.72;;;;;;;11.03;42.39;99852.63;5082989;28;20048;-71
2023/04/24 07:02:52;;;;;;;3.78;2.40;;;;;;;11.02;41.99;99855.53;5087303;28;20044;-69
2023/04/24 07:05:20;;;;;;;3.30;2.10;;;;;;;11.01;42.40;99862.88;5081447;28;20377;-68
2023/04/24 07:07:49;;;;;;;4.65;2.10;;;;;;;11.00;42.40;99861.16;5059181;28;20041;-70
2023/04/24 07:10:19;;;;;;;4.10;2.08;;;;;;;10.99;42.33;99864.91;5079313;28;20103;-71
2023/04/24 07:12:47;;;;;;;3.15;2.08;;;;;;;10.96;42.11;99859.78;5087702;28;20056;-68
2023/04/24 07:15:16;;;;;;;3.08;1.90;;;;;;;10.94;42.29;99864.53;5086300;28;20040;-68
2023/04/24 07:17:44;;;;;;;3.72;2.10;;;;;;;10.92;42.35;99861.09;5097522;28;20142;-69
2023/04/24 07:20:14;;;;;;;3.00;1.67;;;;;;;10.89;42.30;99866.91;5079982;28;20040;-70
2023/04/24 07:22:42;;;;;;;2.63;1.60;;;;;;;10.86;42.77;99869.97;5070224;28;20076;-70
2023/04/24 07:25:10;;;;;;;2.13;1.40;;;;;;;10.84;42.65;99869.25;5076675;28;20036;-70
2023/04/24 07:27:39;;;;;;;3.03;1.60;;;;;;;10.81;42.65;99873.16;5079477;28;20450;-70
2023/04/24 07:30:08;;;;;;;2.40;1.23;;;;;;;10.78;42.15;99872.66;5062677;28;20044;-70
2023/04/24 07:32:36;;;;;;;2.65;1.58;;;;;;;10.73;42.37;99872.28;5083148;28;20584;-68
2023/04/24 07:35:04;;;;;;;2.30;1.20;;;;;;;10.69;42.22;99877.19;5066137;28;20068;-72
2023/04/24 07:37:32;;;;;;;2.22;1.20;;;;;;;10.66;42.70;99890.31;5078845;28;20072;-72
2023/04/24 07:40:00;;;;;;;2.53;1.10;;;;;;;10.62;42.69;99895.28;5079878;28;20483;-72
2023/04/24 07:42:30;;;;;;;1.05;0.80;;;;;;;10.58;42.51;99900.19;5085929;28;20060;-71
2023/04/24 07:44:59;;;;;;;1.17;0.77;;;;;;;10.55;42.03;99902.41;5078916;28;20575;-72
2023/04/24 07:47:27;;;;;;;1.15;0.70;;;;;;;10.48;42.08;99917.69;5078342;28;20104;-71
2023/04/24 07:49:55;;;;;;;0.93;0.50;;;;;;;10.42;41.78;99916.41;5071865;28;20294;-72
2023/04/24 07:52:24;;;;;;;0.82;0.50;;;;;;;10.38;42.51;99905.97;5070713;28;20048;-72
2023/04/24 07:54:58;;;;;;;0.88;0.40;;;;;;;10.31;42.12;99913.94;5075222;28;20037;-72
2023/04/24 07:57:26;;;;;;;0.57;0.50;;;;;;;10.24;42.31;99912.81;5080629;28;20051;-72
2023/04/24 07:59:53;;;;;;;0.90;0.40;;;;;;;10.19;42.08;99915.16;5062306;28;20138;-72
2023/04/24 08:02:26;;;;;;;0.65;0.38;;;;;;;10.15;42.23;99911.88;5060488;28;20052;-72
2023/04/24 08:04:54;;;;;;;0.40;0.40;;;;;;;10.07;42.42;99881.72;5070779;28;20048;-72
2023/04/24 08:07:24;;;;;;;1.30;0.55;;;;;;;10.05;42.44;99904.75;5081425;28;20068;-71
2023/04/24 08:09:52;;;;;;;0.50;0.38;;;;;;;10.00;42.50;99904.34;5071715;28;20044;-71
2023/04/24 08:12:20;;;;;;;0.68;0.55;;;;;;;9.95;42.42;99912.16;5070376;28;20100;-74
2023/04/24 08:14:48;;;;;;;0.60;0.50;;;;;;;9.89;42.57;99921.84;5056212;28;20418;-71
2023/04/24 08:17:17;;;;;;;0.70;0.50;;;;;;;9.85;42.53;99923.16;5074678;28;20415;-72
2023/04/24 08:19:48;;;;;;;0.68;0.52;;;;;;;9.81;42.16;99914.41;5081975;28;20135;-71
2023/04/24 08:22:16;;;;;;;0.52;0.40;;;;;;;9.76;42.70;99930.38;5073083;28;20049;-71
2023/04/24 08:24:44;;;;;;;1.35;0.68;;;;;;;9.74;42.64;99931.56;5067080;28;20044;-72
2023/04/24 08:27:12;;;;;;;1.48;0.90;;;;;;;9.71;43.24;99948.25;5082935;28;20064;-72
2023/04/24 08:29:40;;;;;;;2.22;1.20;;;;;;;9.68;43.30;99941.22;5084378;28;20056;-72
2023/04/24 08:32:08;;;;;;;1.67;1.02;;;;;;;9.67;43.50;99942.22;5072316;28;20136;-72
2023/04/24 08:34:36;;;;;;;2.10;1.25;;;;;;;9.65;43.64;99957.94;5081621;28;20075;-71
2023/04/24 08:37:05;;;;;;;2.65;1.60;;;;;;;9.65;43.69;99974.31;5077271;28;20059;-70
2023/04/24 08:39:33;;;;;;;2.47;1.33;;;;;;;9.61;43.97;99977.47;5084125;28;20036;-71
2023/04/24 08:42:05;;;;;;;3.75;1.73;;;;;;;9.59;44.03;99983.09;5085334;28;20055;-71
2023/04/24 08:44:33;;;;;;;2.97;1.40;;;;;;;9.60;44.06;99984.81;5087219;28;20470;-71
2023/04/24 08:47:02;;;;;;;3.17;1.50;;;;;;;9.60;44.11;99997.59;5067211;28;20499;-71
2023/04/24 08:49:31;;;;;;;2.58;1.48;;;;;;;9.60;44.51;100001.19;5107497;22;20062;-82
2023/04/24 08:52:01;;;;;;;3.47;1.77;;;;;;;9.61;44.50;99996.59;5067617;28;20040;-81
2023/04/24 08:54:32;;;;;;;3.03;1.65;;;;;;;9.61;44.90;100002.94;5060131;28;20040;-80
2023/04/24 08:57:03;;;;;;;2.53;1.70;;;;;;;9.59;44.72;100007.66;5077699;28;20044;-81
2023/04/24 08:59:32;;;;;;;3.65;2.00;;;;;;;9.59;44.82;100013.13;5072033;28;20045;-80
2023/04/24 09:02:01;;;;;;;3.95;2.00;;;;;;;9.56;44.75;100016.19;5073794;28;20044;-81
2023/04/24 09:04:30;;;;;;;3.22;1.70;;;;;;;9.57;45.04;100038.91;5072086;28;20056;-80
2023/04/24 09:06:59;;;;;;;2.65;1.63;;;;;;;9.54;44.66;100056.44;5084538;28;20158;-80
2023/04/24 09:09:33;;;;;;;2.65;1.60;;;;;;;9.54;45.57;100033.72;5068435;28;20040;-81
2023/04/24 09:12:03;;;;;;;2.50;1.50;;;;;;;9.50;45.20;100052.25;5081102;28;20107;-80
2023/04/24 09:14:32;;;;;;;3.35;1.60;;;;;;;9.49;44.88;100058.75;5073008;28;20082;-80
2023/04/24 09:17:01;;;;;;;2.10;1.30;;;;;;;9.48;45.14;100064.38;5095940;28;20044;-80
2023/04/24 09:19:30;;;;;;;2.58;1.30;;;;;;;9.46;45.41;100083.63;5077821;28;20044;-81
2023/04/24 09:21:58;;;;;;;2.85;1.48;;;;;;;9.46;45.68;100083.63;5066838;28;20059;-80
2023/04/24 09:24:26;;;;;;;3.42;1.92;;;;;;;9.46;45.13;100098.16;5068988;28;20040;-81
2023/04/24 09:27:01;;;;;;;3.03;1.75;;;;;;;9.48;46.57;100097.16;5060765;28;20044;-82
2023/04/24 09:29:29;;;;;;;2.90;1.73;;;;;;;9.44;45.91;100096.56;5065625;28;20036;-81
2023/04/24 09:31:57;;;;;;;3.03;1.80;;;;;;;9.44;45.88;100115.69;5058372;28;20070;-82
2023/04/24 09:34:27;;;;;;;3.03;1.80;;;;;;;9.44;45.78;100105.63;5070013;28;20043;-81
2023/04/24 09:36:56;;;;;;;2.90;1.70;;;;;;;9.43;45.66;100116.69;5067627;28;20675;-81
2023/04/24 09:39:24;;;;;;;3.10;2.03;;;;;;;9.43;45.56;100142.13;5062495;28;20492;-82
2023/04/24 09:41:54;;;;;;;3.67;1.80;;;;;;;9.42;45.49;100139.53;5056681;28;20102;-82
2023/04/24 09:44:27;;;;;;;3.33;1.90;;;;;;;9.40;46.19;100147.03;5074331;28;20044;-81
2023/04/24 09:46:57;;;;;;;3.33;2.03;;;;;;;9.38;45.72;100157.19;5067563;28;20048;-81
2023/04/24 09:49:27;;;;;;;4.32;2.15;;;;;;;9.38;46.29;100160.81;5078901;28;20218;-81
2023/04/24 09:52:04;;;;;;;3.15;1.80;;;;;;;9.40;46.67;100163.41;5072130;28;20074;-81
2023/04/24 09:54:32;;;;;;;4.95;2.28;;;;;;;9.37;45.82;100163.66;5079485;28;20070;-81
2023/04/24 09:57:00;;;;;;;3.85;2.20;;;;;;;9.37;46.35;100167.25;5068522;28;20052;-81
2023/04/24 09:59:30;;;;;;;3.70;2.40;;;;;;;9.39;46.27;100173.47;5082251;28;20044;-81
2023/04/24 10:02:00;;;;;;;4.43;2.70;;;;;;;9.39;46.34;100180.81;5081776;28;20072;-81
2023/04/24 10:04:29;;;;;;;4.07;2.53;;;;;;;9.41;46.85;100187.81;5068168;28;20044;-81
2023/04/24 10:06:59;;;;;;;5.22;2.60;;;;;;;9.41;46.49;100201.47;5075886;28;20306;-81
2023/04/24 10:09:27;;;;;;;5.15;2.50;;;;;;;9.42;46.48;100196.88;5059625;28;20140;-82
2023/04/24 10:11:56;;;;;;;6.45;2.75;;;;;;;9.43;46.76;100196.75;5050822;28;20056;-82
2023/04/24 10:14:25;;;;;;;5.35;3.25;;;;;;;9.45;46.42;100199.34;5054424;28;20045;-81
2023/04/24 10:16:57;;;;;;;5.32;2.95;;;;;;;9.47;47.00;100205.53;5061148;28;20040;-83
2023/04/24 10:19:27;;;;;;;4.30;2.70;;;;;;;9.44;46.82;100211.28;5064223;28;20036;-83
2023/04/24 10:21:57;;;;;;;5.40;2.90;;;;;;;9.45;46.45;100205.66;5071086;28;20061;-82
2023/04/24 10:24:25;;;;;;;5.82;3.20;;;;;;;9.47;47.19;100216.47;5066621;28;20040;-81
2023/04/24 10:26:53;;;;;;;4.93;2.90;;;;;;;9.48;46.94;100218.19;5067005;28;20058;-81
2023/04/24 10:29:22;;;;;;;5.80;2.95;;;;;;;9.48;47.38;100215.47;5062964;28;20295;-82
2023/04/24 10:31:50;;;;;;;5.22;3.10;;;;;;;9.48;47.29;100218.19;5045001;28;20099;-82
2023/04/24 10:34:22;;;;;;;6.97;3.30;;;;;;;9.52;47.75;100218.75;5062345;28;20036;-82
2023/04/24 10:36:53;;;;;;;5.85;3.33;;;;;;;9.51;47.41;100227.94;5077918;28;20115;-81
2023/04/24 10:39:25;;;;;;;7.03;2.85;;;;;;;9.53;47.63;100236.88;5069148;28;20044;-81
2023/04/24 10:41:57;;;;;;;5.22;2.83;;;;;;;9.54;47.37;100242.19;5078992;28;20446;-81
2023/04/24 10:44:25;;;;;;;5.13;3.10;;;;;;;9.55;47.78;100235.72;5064481;28;20051;-80
2023/04/24 10:46:55;;;;;;;5.97;3.10;;;;;;;9.57;47.79;100239.19;5074773;28;20083;-81
2023/04/24 10:49:31;;;;;;;5.18;3.00;;;;;;;9.61;48.53;100253.41;5065143;28;20041;-81
2023/04/24 10:52:02;;;;;;;4.68;2.78;;;;;;;9.60;47.83;100257.13;5084761;28;20066;-81
2023/04/24 10:54:34;;;;;;;5.70;2.92;;;;;;;9.61;47.54;100265.19;5079304;28;20050;-81
2023/04/24 10:57:28;;;;;;;6.72;2.80;;;;;;;9.62;48.21;100260.59;5068422;28;20495;-81
2023/04/24 11:00:15;;;;;;;6.28;2.70;;;;;;;9.62;48.57;100272.38;5082898;28;20523;-81
2023/04/24 11:02:48;;;;;;;6.25;2.60;;;;;;;9.62;47.57;100280.59;5078017;28;20103;-81
2023/04/24 11:05:18;;;;;;;4.25;2.38;;;;;;;9.66;48.28;100276.53;5076869;28;20051;-82
2023/04/24 11:08:11;;;;;;;5.78;2.75;;;;;;;9.68;48.83;100271.81;5064977;28;20055;-80
2023/04/24 11:10:41;;;;;;;5.78;2.58;;;;;;;9.68;47.85;100282.75;5069020;28;20044;-81
2023/04/24 11:13:09;;;;;;;5.07;2.38;;;;;;;9.72;48.04;100283.34;5041779;28;20488;-80
2023/04/24 11:15:42;;;;;;;5.45;2.53;;;;;;;9.75;47.93;100285.75;5071109;28;20132;-80
2023/04/24 11:18:14;;;;;;;4.38;2.58;;;;;;;9.79;48.36;100284.47;5067021;28;20049;-80
2023/04/24 11:20:45;;;;;;;5.95;2.15;;;;;;;9.78;47.93;100296.41;5063580;28;20052;-80
2023/04/24 11:23:14;;;;;;;5.78;2.83;;;;;;;9.81;47.91;100301.59;5070448;28;20051;-79
2023/04/24 11:25:42;;;;;;;4.57;2.58;;;;;;;9.81;47.45;100305.22;5060307;28;20147;-80
2023/04/24 11:28:16;;;;;;;5.50;2.50;;;;;;;9.84;47.99;100304.03;5073104;28;20051;-79
2023/04/24 11:30:44;;;;;;;4.20;2.35;;;;;;;9.83;47.50;100314.09;5059139;28;20049;-79
2023/04/24 11:33:12;;;;;;;5.43;2.60;;;;;;;9.85;47.92;100313.97;5068251;28;20040;-80
2023/04/24 11:35:41;;;;;;;3.78;2.15;;;;;;;9.88;47.42;100318.28;5076344;28;20041;-80
2023/04/24 11:38:12;;;;;;;6.35;2.42;;;;;;;9.89;47.36;100320.03;5085054;28;20089;-79
2023/04/24 11:40:52;;;;;;;5.25;2.10;;;;;;;9.89;47.57;100320.03;5072205;28;20049;-80
2023/04/24 11:43:21;;;;;;;5.65;2.50;;;;;;;9.91;47.53;100318.84;5092577;28;20042;-80
2023/04/24 11:45:50;;;;;;;5.38;2.45;;;;;;;9.93;47.46;100327.78;5093210;28;20082;-78